sensor_id;sensor_type;location;lat;lon;timestamp;P1;durP1;ratioP1;P2;durP2;ratioP2
12756;SDS011;31601;48.042;12.240;2022-08-03T00:00:49;2.30;;;1.77;;
12756;SDS011;31601;48.042;12.240;2022-08-03T00:03:16;3.27;;;1.60;;
12756;SDS011;31601;48.042;12.240;2022-08-03T00:05:42;2.30;;;1.67;;
12756;SDS011;31601;48.042;12.240;2022-08-03T00:08:08;1.70;;;1.60;;
12756;SDS011;31601;48.042;12.240;2022-08-03T00:10:35;2.70;;;1.63;;
12756;SDS011;31601;48.042;12.240;2022-08-03T00:13:02;3.27;;;1.50;;
12756;SDS011;31601;48.042;12.240;2022-08-03T00:15:28;2.97;;;1.80;;
12756;SDS011;31601;48.042;12.240;2022-08-03T00:17:56;5.67;;;1.80;;
12756;SDS011;31601;48.042;12.240;2022-08-03T00:20:23;4.43;;;1.70;;
12756;SDS011;31601;48.042;12.240;2022-08-03T00:22:50;2.70;;;1.63;;
12756;SDS011;31601;48.042;12.240;2022-08-03T00:25:16;10.80;;;1.80;;
12756;SDS011;31601;48.042;12.240;2022-08-03T00:27:43;2.80;;;1.90;;
12756;SDS011;31601;48.042;12.240;2022-08-03T00:30:09;2.33;;;1.77;;
12756;SDS011;31601;48.042;12.240;2022-08-03T00:32:36;2.00;;;1.80;;
12756;SDS011;31601;48.042;12.240;2022-08-03T00:35:04;3.93;;;2.10;;
12756;SDS011;31601;48.042;12.240;2022-08-03T00:37:31;2.10;;;1.73;;
12756;SDS011;31601;48.042;12.240;2022-08-03T00:39:58;3.77;;;1.43;;
12756;SDS011;31601;48.042;12.240;2022-08-03T00:42:25;2.80;;;1.87;;
12756;SDS011;31601;48.042;12.240;2022-08-03T00:44:51;2.13;;;1.50;;
12756;SDS011;31601;48.042;12.240;2022-08-03T00:47:18;2.07;;;1.57;;
12756;SDS011;31601;48.042;12.240;2022-08-03T00:49:44;3.50;;;1.60;;
12756;SDS011;31601;48.042;12.240;2022-08-03T00:52:12;4.80;;;1.70;;
12756;SDS011;31601;48.042;12.240;2022-08-03T00:54:40;3.10;;;1.93;;
12756;SDS011;31601;48.042;12.240;2022-08-03T00:57:07;3.10;;;1.50;;
12756;SDS011;31601;48.042;12.240;2022-08-03T00:59:33;3.00;;;2.07;;
12756;SDS011;31601;48.042;12.240;2022-08-03T01:02:02;3.43;;;1.73;;
12756;SDS011;31601;48.042;12.240;2022-08-03T01:04:28;3.57;;;2.00;;
12756;SDS011;31601;48.042;12.240;2022-08-03T01:06:57;2.90;;;1.83;;
12756;SDS011;31601;48.042;12.240;2022-08-03T01:09:32;2.03;;;1.70;;
12756;SDS011;31601;48.042;12.240;2022-08-03T01:12:07;2.87;;;1.83;;
12756;SDS011;31601;48.042;12.240;2022-08-03T01:14:40;3.20;;;1.80;;
12756;SDS011;31601;48.042;12.240;2022-08-03T01:17:18;3.20;;;1.80;;
12756;SDS011;31601;48.042;12.240;2022-08-03T01:19:51;1.80;;;1.50;;
12756;SDS011;31601;48.042;12.240;2022-08-03T01:22:31;2.70;;;1.50;;
12756;SDS011;31601;48.042;12.240;2022-08-03T01:25:09;5.00;;;2.00;;
12756;SDS011;31601;48.042;12.240;2022-08-03T01:27:50;5.90;;;2.27;;
12756;SDS011;31601;48.042;12.240;2022-08-03T01:30:23;3.90;;;2.07;;
12756;SDS011;31601;48.042;12.240;2022-08-03T01:32:56;4.73;;;2.00;;
12756;SDS011;31601;48.042;12.240;2022-08-03T01:35:27;2.87;;;1.90;;
12756;SDS011;31601;48.042;12.240;2022-08-03T01:37:59;2.87;;;1.80;;
12756;SDS011;31601;48.042;12.240;2022-08-03T01:40:29;4.33;;;1.77;;
12756;SDS011;31601;48.042;12.240;2022-08-03T01:42:59;4.60;;;1.90;;
12756;SDS011;31601;48.042;12.240;2022-08-03T01:45:29;4.67;;;2.40;;
12756;SDS011;31601;48.042;12.240;2022-08-03T01:47:57;3.93;;;2.20;;
12756;SDS011;31601;48.042;12.240;2022-08-03T01:50:26;3.03;;;1.70;;
12756;SDS011;31601;48.042;12.240;2022-08-03T01:52:54;2.90;;;1.80;;
12756;SDS011;31601;48.042;12.240;2022-08-03T01:55:22;1.70;;;1.53;;
12756;SDS011;31601;48.042;12.240;2022-08-03T01:57:52;2.40;;;1.80;;
12756;SDS011;31601;48.042;12.240;2022-08-03T02:00:20;3.47;;;2.53;;
12756;SDS011;31601;48.042;12.240;2022-08-03T02:02:50;4.17;;;2.30;;
12756;SDS011;31601;48.042;12.240;2022-08-03T02:05:19;2.57;;;2.00;;
12756;SDS011;31601;48.042;12.240;2022-08-03T02:07:47;5.83;;;1.83;;
12756;SDS011;31601;48.042;12.240;2022-08-03T02:10:14;3.20;;;1.83;;
12756;SDS011;31601;48.042;12.240;2022-08-03T02:12:44;2.20;;;1.63;;
12756;SDS011;31601;48.042;12.240;2022-08-03T02:15:13;4.43;;;2.40;;
12756;SDS011;31601;48.042;12.240;2022-08-03T02:17:41;3.63;;;1.90;;
12756;SDS011;31601;48.042;12.240;2022-08-03T02:20:12;2.90;;;2.00;;
12756;SDS011;31601;48.042;12.240;2022-08-03T02:22:40;1.87;;;1.77;;
12756;SDS011;31601;48.042;12.240;2022-08-03T02:25:09;4.77;;;2.00;;
12756;SDS011;31601;48.042;12.240;2022-08-03T02:27:37;2.27;;;1.87;;
12756;SDS011;31601;48.042;12.240;2022-08-03T02:30:08;1.87;;;1.60;;
12756;SDS011;31601;48.042;12.240;2022-08-03T02:32:39;2.23;;;1.37;;
12756;SDS011;31601;48.042;12.240;2022-08-03T02:35:09;3.73;;;1.93;;
12756;SDS011;31601;48.042;12.240;2022-08-03T02:37:41;1.83;;;1.70;;
12756;SDS011;31601;48.042;12.240;2022-08-03T02:40:11;2.13;;;1.30;;
12756;SDS011;31601;48.042;12.240;2022-08-03T02:42:40;3.57;;;1.50;;
12756;SDS011;31601;48.042;12.240;2022-08-03T02:45:09;3.77;;;1.20;;
12756;SDS011;31601;48.042;12.240;2022-08-03T02:47:38;2.00;;;1.37;;
12756;SDS011;31601;48.042;12.240;2022-08-03T02:50:07;1.77;;;1.57;;
12756;SDS011;31601;48.042;12.240;2022-08-03T02:52:35;1.90;;;1.70;;
12756;SDS011;31601;48.042;12.240;2022-08-03T02:55:05;2.40;;;1.80;;
12756;SDS011;31601;48.042;12.240;2022-08-03T02:57:34;2.17;;;1.97;;
12756;SDS011;31601;48.042;12.240;2022-08-03T03:00:02;4.37;;;2.10;;
12756;SDS011;31601;48.042;12.240;2022-08-03T03:02:30;4.43;;;2.13;;
12756;SDS011;31601;48.042;12.240;2022-08-03T03:04:57;2.10;;;1.70;;
12756;SDS011;31601;48.042;12.240;2022-08-03T03:07:26;3.50;;;1.60;;
12756;SDS011;31601;48.042;12.240;2022-08-03T03:09:53;3.53;;;1.70;;
12756;SDS011;31601;48.042;12.240;2022-08-03T03:12:21;3.40;;;1.80;;
12756;SDS011;31601;48.042;12.240;2022-08-03T03:14:49;5.50;;;1.73;;
12756;SDS011;31601;48.042;12.240;2022-08-03T03:17:16;2.27;;;1.87;;
12756;SDS011;31601;48.042;12.240;2022-08-03T03:19:43;5.33;;;1.73;;
12756;SDS011;31601;48.042;12.240;2022-08-03T03:22:11;3.53;;;1.43;;
12756;SDS011;31601;48.042;12.240;2022-08-03T03:24:39;1.40;;;1.30;;
12756;SDS011;31601;48.042;12.240;2022-08-03T03:27:07;2.00;;;1.10;;
12756;SDS011;31601;48.042;12.240;2022-08-03T03:29:35;2.70;;;1.50;;
12756;SDS011;31601;48.042;12.240;2022-08-03T03:32:03;4.53;;;1.70;;
12756;SDS011;31601;48.042;12.240;2022-08-03T03:34:30;3.77;;;1.60;;
12756;SDS011;31601;48.042;12.240;2022-08-03T03:36:57;2.63;;;1.70;;
12756;SDS011;31601;48.042;12.240;2022-08-03T03:39:24;2.57;;;1.57;;
12756;SDS011;31601;48.042;12.240;2022-08-03T03:41:50;4.07;;;1.60;;
12756;SDS011;31601;48.042;12.240;2022-08-03T03:44:17;4.80;;;1.70;;
12756;SDS011;31601;48.042;12.240;2022-08-03T03:46:45;1.97;;;1.53;;
12756;SDS011;31601;48.042;12.240;2022-08-03T03:49:11;3.43;;;1.67;;
12756;SDS011;31601;48.042;12.240;2022-08-03T03:51:38;2.63;;;1.60;;
12756;SDS011;31601;48.042;12.240;2022-08-03T03:54:04;1.70;;;1.40;;
12756;SDS011;31601;48.042;12.240;2022-08-03T03:56:31;2.60;;;1.60;;
12756;SDS011;31601;48.042;12.240;2022-08-03T03:58:57;3.60;;;1.73;;
12756;SDS011;31601;48.042;12.240;2022-08-03T04:01:24;3.57;;;1.80;;
12756;SDS011;31601;48.042;12.240;2022-08-03T04:03:52;1.80;;;1.53;;
12756;SDS011;31601;48.042;12.240;2022-08-03T04:06:19;2.80;;;1.90;;
12756;SDS011;31601;48.042;12.240;2022-08-03T04:09:03;2.13;;;1.93;;
12756;SDS011;31601;48.042;12.240;2022-08-03T04:11:49;2.43;;;1.77;;
12756;SDS011;31601;48.042;12.240;2022-08-03T04:14:18;2.30;;;2.10;;
12756;SDS011;31601;48.042;12.240;2022-08-03T04:16:48;2.73;;;1.80;;
12756;SDS011;31601;48.042;12.240;2022-08-03T04:19:18;2.73;;;1.83;;
12756;SDS011;31601;48.042;12.240;2022-08-03T04:21:52;2.33;;;2.07;;
12756;SDS011;31601;48.042;12.240;2022-08-03T04:24:22;2.87;;;2.10;;
12756;SDS011;31601;48.042;12.240;2022-08-03T04:26:55;3.33;;;2.47;;
12756;SDS011;31601;48.042;12.240;2022-08-03T04:29:27;2.90;;;2.00;;
12756;SDS011;31601;48.042;12.240;2022-08-03T04:31:57;3.83;;;2.43;;
12756;SDS011;31601;48.042;12.240;2022-08-03T04:34:27;2.83;;;2.03;;
12756;SDS011;31601;48.042;12.240;2022-08-03T04:36:55;4.13;;;2.60;;
12756;SDS011;31601;48.042;12.240;2022-08-03T04:39:28;4.70;;;2.47;;
12756;SDS011;31601;48.042;12.240;2022-08-03T04:41:57;2.73;;;2.10;;
12756;SDS011;31601;48.042;12.240;2022-08-03T04:44:27;4.20;;;2.43;;
12756;SDS011;31601;48.042;12.240;2022-08-03T04:46:56;5.63;;;2.50;;
12756;SDS011;31601;48.042;12.240;2022-08-03T04:49:24;3.10;;;2.47;;
12756;SDS011;31601;48.042;12.240;2022-08-03T04:51:54;7.10;;;2.30;;
12756;SDS011;31601;48.042;12.240;2022-08-03T04:54:20;5.20;;;2.10;;
12756;SDS011;31601;48.042;12.240;2022-08-03T04:56:47;4.57;;;2.10;;
12756;SDS011;31601;48.042;12.240;2022-08-03T04:59:13;4.13;;;1.63;;
12756;SDS011;31601;48.042;12.240;2022-08-03T05:01:41;3.70;;;2.30;;
12756;SDS011;31601;48.042;12.240;2022-08-03T05:04:08;5.80;;;2.37;;
12756;SDS011;31601;48.042;12.240;2022-08-03T05:06:36;2.43;;;1.97;;
12756;SDS011;31601;48.042;12.240;2022-08-03T05:09:03;4.13;;;2.70;;
12756;SDS011;31601;48.042;12.240;2022-08-03T05:11:29;5.27;;;2.50;;
12756;SDS011;31601;48.042;12.240;2022-08-03T05:13:56;2.57;;;2.10;;
12756;SDS011;31601;48.042;12.240;2022-08-03T05:16:22;2.80;;;2.50;;
12756;SDS011;31601;48.042;12.240;2022-08-03T05:18:49;3.43;;;2.43;;
12756;SDS011;31601;48.042;12.240;2022-08-03T05:21:16;3.30;;;2.63;;
12756;SDS011;31601;48.042;12.240;2022-08-03T05:23:44;2.80;;;2.10;;
12756;SDS011;31601;48.042;12.240;2022-08-03T05:26:10;2.83;;;2.33;;
12756;SDS011;31601;48.042;12.240;2022-08-03T05:28:37;5.80;;;2.67;;
12756;SDS011;31601;48.042;12.240;2022-08-03T05:31:03;5.57;;;2.50;;
12756;SDS011;31601;48.042;12.240;2022-08-03T05:33:30;3.00;;;2.73;;
12756;SDS011;31601;48.042;12.240;2022-08-03T05:35:56;10.27;;;2.67;;
12756;SDS011;31601;48.042;12.240;2022-08-03T05:38:23;3.03;;;2.73;;
12756;SDS011;31601;48.042;12.240;2022-08-03T05:40:51;3.60;;;2.60;;
12756;SDS011;31601;48.042;12.240;2022-08-03T05:43:18;4.97;;;2.77;;
12756;SDS011;31601;48.042;12.240;2022-08-03T05:45:44;4.07;;;2.57;;
12756;SDS011;31601;48.042;12.240;2022-08-03T05:48:11;4.87;;;2.77;;
12756;SDS011;31601;48.042;12.240;2022-08-03T05:50:37;2.70;;;2.47;;
12756;SDS011;31601;48.042;12.240;2022-08-03T05:53:04;3.20;;;2.85;;
12756;SDS011;31601;48.042;12.240;2022-08-03T05:55:30;4.32;;;2.95;;
12756;SDS011;31601;48.042;12.240;2022-08-03T05:57:58;3.72;;;2.63;;
12756;SDS011;31601;48.042;12.240;2022-08-03T06:00:26;4.75;;;2.50;;
12756;SDS011;31601;48.042;12.240;2022-08-03T06:02:52;4.72;;;2.53;;
12756;SDS011;31601;48.042;12.240;2022-08-03T06:05:19;3.83;;;2.83;;
12756;SDS011;31601;48.042;12.240;2022-08-03T06:07:46;3.40;;;2.50;;
12756;SDS011;31601;48.042;12.240;2022-08-03T06:10:12;4.00;;;2.67;;
12756;SDS011;31601;48.042;12.240;2022-08-03T06:12:39;4.85;;;2.47;;
12756;SDS011;31601;48.042;12.240;2022-08-03T06:15:08;4.60;;;2.67;;
12756;SDS011;31601;48.042;12.240;2022-08-03T06:17:42;3.80;;;2.55;;
12756;SDS011;31601;48.042;12.240;2022-08-03T06:20:10;3.75;;;2.50;;
12756;SDS011;31601;48.042;12.240;2022-08-03T06:22:37;4.50;;;2.50;;
12756;SDS011;31601;48.042;12.240;2022-08-03T06:25:04;2.83;;;2.17;;
12756;SDS011;31601;48.042;12.240;2022-08-03T06:27:31;2.60;;;2.40;;
12756;SDS011;31601;48.042;12.240;2022-08-03T06:29:57;5.28;;;2.50;;
12756;SDS011;31601;48.042;12.240;2022-08-03T06:32:25;2.42;;;2.22;;
12756;SDS011;31601;48.042;12.240;2022-08-03T06:34:52;4.05;;;2.28;;
12756;SDS011;31601;48.042;12.240;2022-08-03T06:37:18;4.00;;;2.53;;
12756;SDS011;31601;48.042;12.240;2022-08-03T06:39:44;5.10;;;2.67;;
12756;SDS011;31601;48.042;12.240;2022-08-03T06:42:11;4.50;;;2.08;;
12756;SDS011;31601;48.042;12.240;2022-08-03T06:44:37;3.15;;;2.10;;
12756;SDS011;31601;48.042;12.240;2022-08-03T06:47:04;3.40;;;2.08;;
12756;SDS011;31601;48.042;12.240;2022-08-03T06:49:32;2.42;;;2.22;;
12756;SDS011;31601;48.042;12.240;2022-08-03T06:51:58;7.25;;;2.35;;
12756;SDS011;31601;48.042;12.240;2022-08-03T06:54:27;4.85;;;2.50;;
12756;SDS011;31601;48.042;12.240;2022-08-03T06:56:54;3.72;;;2.15;;
12756;SDS011;31601;48.042;12.240;2022-08-03T06:59:20;2.28;;;2.08;;
12756;SDS011;31601;48.042;12.240;2022-08-03T07:01:47;3.70;;;2.05;;
12756;SDS011;31601;48.042;12.240;2022-08-03T07:04:13;2.67;;;1.77;;
12756;SDS011;31601;48.042;12.240;2022-08-03T07:06:41;4.13;;;1.92;;
12756;SDS011;31601;48.042;12.240;2022-08-03T07:09:07;2.85;;;1.88;;
12756;SDS011;31601;48.042;12.240;2022-08-03T07:11:34;1.88;;;1.70;;
12756;SDS011;31601;48.042;12.240;2022-08-03T07:14:00;2.20;;;1.63;;
12756;SDS011;31601;48.042;12.240;2022-08-03T07:16:27;3.25;;;1.60;;
12756;SDS011;31601;48.042;12.240;2022-08-03T07:19:08;5.15;;;1.83;;
12756;SDS011;31601;48.042;12.240;2022-08-03T07:21:36;3.00;;;1.65;;
12756;SDS011;31601;48.042;12.240;2022-08-03T07:24:04;1.73;;;1.50;;
12756;SDS011;31601;48.042;12.240;2022-08-03T07:26:31;2.72;;;1.60;;
12756;SDS011;31601;48.042;12.240;2022-08-03T07:28:57;3.75;;;1.63;;
12756;SDS011;31601;48.042;12.240;2022-08-03T07:31:25;1.88;;;1.40;;
12756;SDS011;31601;48.042;12.240;2022-08-03T07:33:52;2.38;;;1.70;;
12756;SDS011;31601;48.042;12.240;2022-08-03T07:36:18;2.20;;;1.60;;
12756;SDS011;31601;48.042;12.240;2022-08-03T07:38:45;2.35;;;1.77;;
12756;SDS011;31601;48.042;12.240;2022-08-03T07:41:13;5.78;;;1.65;;
12756;SDS011;31601;48.042;12.240;2022-08-03T07:43:39;3.63;;;1.75;;
12756;SDS011;31601;48.042;12.240;2022-08-03T07:46:06;3.38;;;1.60;;
12756;SDS011;31601;48.042;12.240;2022-08-03T07:48:32;2.55;;;1.50;;
12756;SDS011;31601;48.042;12.240;2022-08-03T07:50:58;3.05;;;1.65;;
12756;SDS011;31601;48.042;12.240;2022-08-03T07:53:27;3.92;;;1.65;;
12756;SDS011;31601;48.042;12.240;2022-08-03T07:55:53;1.77;;;1.50;;
12756;SDS011;31601;48.042;12.240;2022-08-03T07:58:22;2.15;;;1.65;;
12756;SDS011;31601;48.042;12.240;2022-08-03T08:00:48;2.65;;;1.60;;
12756;SDS011;31601;48.042;12.240;2022-08-03T08:03:17;6.18;;;1.60;;
12756;SDS011;31601;48.042;12.240;2022-08-03T08:05:45;3.00;;;1.55;;
12756;SDS011;31601;48.042;12.240;2022-08-03T08:08:12;3.30;;;1.67;;
12756;SDS011;31601;48.042;12.240;2022-08-03T08:10:38;4.97;;;1.92;;
12756;SDS011;31601;48.042;12.240;2022-08-03T08:13:05;2.38;;;1.75;;
12756;SDS011;31601;48.042;12.240;2022-08-03T08:15:33;4.72;;;1.55;;
12756;SDS011;31601;48.042;12.240;2022-08-03T08:17:59;1.50;;;1.40;;
12756;SDS011;31601;48.042;12.240;2022-08-03T08:20:27;2.13;;;1.50;;
12756;SDS011;31601;48.042;12.240;2022-08-03T08:22:56;3.22;;;1.90;;
12756;SDS011;31601;48.042;12.240;2022-08-03T08:25:24;3.83;;;1.52;;
12756;SDS011;31601;48.042;12.240;2022-08-03T08:27:50;4.32;;;1.40;;
12756;SDS011;31601;48.042;12.240;2022-08-03T08:30:17;3.90;;;1.33;;
12756;SDS011;31601;48.042;12.240;2022-08-03T08:32:46;3.40;;;1.80;;
12756;SDS011;31601;48.042;12.240;2022-08-03T08:35:14;4.28;;;1.58;;
12756;SDS011;31601;48.042;12.240;2022-08-03T08:37:40;2.58;;;1.02;;
12756;SDS011;31601;48.042;12.240;2022-08-03T08:40:08;3.30;;;1.20;;
12756;SDS011;31601;48.042;12.240;2022-08-03T08:42:37;3.47;;;1.23;;
12756;SDS011;31601;48.042;12.240;2022-08-03T08:45:04;2.15;;;1.23;;
12756;SDS011;31601;48.042;12.240;2022-08-03T08:47:33;1.98;;;1.27;;
12756;SDS011;31601;48.042;12.240;2022-08-03T08:50:05;0.90;;;0.90;;
12756;SDS011;31601;48.042;12.240;2022-08-03T08:52:33;2.40;;;1.27;;
12756;SDS011;31601;48.042;12.240;2022-08-03T08:55:01;2.63;;;0.90;;
12756;SDS011;31601;48.042;12.240;2022-08-03T08:57:30;1.90;;;0.90;;
12756;SDS011;31601;48.042;12.240;2022-08-03T09:00:00;1.60;;;1.00;;
12756;SDS011;31601;48.042;12.240;2022-08-03T09:02:28;1.00;;;0.80;;
12756;SDS011;31601;48.042;12.240;2022-08-03T09:04:55;1.13;;;0.70;;
12756;SDS011;31601;48.042;12.240;2022-08-03T09:07:24;2.70;;;0.90;;
12756;SDS011;31601;48.042;12.240;2022-08-03T09:09:51;2.35;;;1.00;;
12756;SDS011;31601;48.042;12.240;2022-08-03T09:12:18;2.63;;;0.82;;
12756;SDS011;31601;48.042;12.240;2022-08-03T09:14:44;2.60;;;1.10;;
12756;SDS011;31601;48.042;12.240;2022-08-03T09:17:11;0.80;;;0.70;;
12756;SDS011;31601;48.042;12.240;2022-08-03T09:19:37;3.97;;;0.90;;
12756;SDS011;31601;48.042;12.240;2022-08-03T09:22:06;3.35;;;0.75;;
12756;SDS011;31601;48.042;12.240;2022-08-03T09:24:36;2.50;;;0.98;;
12756;SDS011;31601;48.042;12.240;2022-08-03T09:27:04;1.27;;;0.85;;
12756;SDS011;31601;48.042;12.240;2022-08-03T09:29:31;2.67;;;0.80;;
12756;SDS011;31601;48.042;12.240;2022-08-03T09:31:59;1.75;;;0.70;;
12756;SDS011;31601;48.042;12.240;2022-08-03T09:34:27;1.23;;;0.80;;
12756;SDS011;31601;48.042;12.240;2022-08-03T09:36:54;1.10;;;0.80;;
12756;SDS011;31601;48.042;12.240;2022-08-03T09:39:22;0.82;;;0.70;;
12756;SDS011;31601;48.042;12.240;2022-08-03T09:42:04;3.60;;;0.75;;
12756;SDS011;31601;48.042;12.240;2022-08-03T09:44:35;1.50;;;0.98;;
12756;SDS011;31601;48.042;12.240;2022-08-03T09:47:02;1.15;;;0.82;;
12756;SDS011;31601;48.042;12.240;2022-08-03T09:49:30;3.50;;;1.00;;
12756;SDS011;31601;48.042;12.240;2022-08-03T09:51:58;1.98;;;0.80;;
12756;SDS011;31601;48.042;12.240;2022-08-03T09:54:27;1.27;;;0.70;;
12756;SDS011;31601;48.042;12.240;2022-08-03T09:56:55;2.25;;;0.90;;
12756;SDS011;31601;48.042;12.240;2022-08-03T09:59:25;1.30;;;0.80;;
12756;SDS011;31601;48.042;12.240;2022-08-03T10:01:53;1.00;;;0.70;;
12756;SDS011;31601;48.042;12.240;2022-08-03T10:04:20;1.70;;;0.70;;
12756;SDS011;31601;48.042;12.240;2022-08-03T10:07:00;1.20;;;0.63;;
12756;SDS011;31601;48.042;12.240;2022-08-03T10:09:29;0.70;;;0.70;;
12756;SDS011;31601;48.042;12.240;2022-08-03T10:11:56;1.40;;;0.75;;
12756;SDS011;31601;48.042;12.240;2022-08-03T10:14:25;0.93;;;0.73;;
12756;SDS011;31601;48.042;12.240;2022-08-03T10:16:55;2.70;;;0.80;;
12756;SDS011;31601;48.042;12.240;2022-08-03T10:19:22;0.80;;;0.52;;
12756;SDS011;31601;48.042;12.240;2022-08-03T10:21:52;1.15;;;0.77;;
12756;SDS011;31601;48.042;12.240;2022-08-03T10:24:23;0.95;;;0.63;;
12756;SDS011;31601;48.042;12.240;2022-08-03T10:26:51;1.02;;;0.77;;
12756;SDS011;31601;48.042;12.240;2022-08-03T10:29:24;1.08;;;0.80;;
12756;SDS011;31601;48.042;12.240;2022-08-03T10:31:55;2.15;;;0.90;;
12756;SDS011;31601;48.042;12.240;2022-08-03T10:34:24;1.20;;;0.65;;
12756;SDS011;31601;48.042;12.240;2022-08-03T10:36:54;0.90;;;0.77;;
12756;SDS011;31601;48.042;12.240;2022-08-03T10:39:24;1.10;;;0.60;;
12756;SDS011;31601;48.042;12.240;2022-08-03T10:41:53;1.90;;;0.90;;
12756;SDS011;31601;48.042;12.240;2022-08-03T10:44:23;1.77;;;0.65;;
12756;SDS011;31601;48.042;12.240;2022-08-03T10:46:53;0.82;;;0.70;;
12756;SDS011;31601;48.042;12.240;2022-08-03T10:49:21;2.60;;;0.77;;
12756;SDS011;31601;48.042;12.240;2022-08-03T10:51:49;1.25;;;0.95;;
12756;SDS011;31601;48.042;12.240;2022-08-03T10:57:43;2.45;;;0.77;;
12756;SDS011;31601;48.042;12.240;2022-08-03T11:00:12;2.13;;;0.70;;
12756;SDS011;31601;48.042;12.240;2022-08-03T11:05:31;2.03;;;0.60;;
12756;SDS011;31601;48.042;12.240;2022-08-03T11:08:17;1.42;;;0.77;;
12756;SDS011;31601;48.042;12.240;2022-08-03T11:10:56;1.02;;;0.80;;
12756;SDS011;31601;48.042;12.240;2022-08-03T11:13:25;2.35;;;0.85;;
12756;SDS011;31601;48.042;12.240;2022-08-03T11:15:57;1.15;;;0.60;;
12756;SDS011;31601;48.042;12.240;2022-08-03T11:18:25;1.65;;;0.85;;
12756;SDS011;31601;48.042;12.240;2022-08-03T11:20:52;1.30;;;0.60;;
12756;SDS011;31601;48.042;12.240;2022-08-03T11:26:09;0.85;;;0.70;;
12756;SDS011;31601;48.042;12.240;2022-08-03T11:28:37;0.80;;;0.60;;
12756;SDS011;31601;48.042;12.240;2022-08-03T11:34:14;0.65;;;0.60;;
12756;SDS011;31601;48.042;12.240;2022-08-03T11:39:47;1.08;;;0.77;;
12756;SDS011;31601;48.042;12.240;2022-08-03T11:45:09;0.70;;;0.60;;
12756;SDS011;31601;48.042;12.240;2022-08-03T11:47:39;2.05;;;0.75;;
12756;SDS011;31601;48.042;12.240;2022-08-03T11:50:06;1.08;;;0.70;;
12756;SDS011;31601;48.042;12.240;2022-08-03T11:52:34;1.25;;;0.77;;
12756;SDS011;31601;48.042;12.240;2022-08-03T11:55:02;1.58;;;0.65;;
12756;SDS011;31601;48.042;12.240;2022-08-03T11:57:35;0.95;;;0.80;;
12756;SDS011;31601;48.042;12.240;2022-08-03T12:00:02;1.02;;;0.60;;
12756;SDS011;31601;48.042;12.240;2022-08-03T12:02:53;1.17;;;0.88;;
12756;SDS011;31601;48.042;12.240;2022-08-03T12:05:37;0.95;;;0.70;;
12756;SDS011;31601;48.042;12.240;2022-08-03T12:08:05;0.70;;;0.70;;
12756;SDS011;31601;48.042;12.240;2022-08-03T12:10:32;0.63;;;0.60;;
12756;SDS011;31601;48.042;12.240;2022-08-03T12:13:00;0.77;;;0.50;;
12756;SDS011;31601;48.042;12.240;2022-08-03T12:15:30;1.40;;;0.82;;
12756;SDS011;31601;48.042;12.240;2022-08-03T12:17:59;0.70;;;0.55;;
12756;SDS011;31601;48.042;12.240;2022-08-03T12:20:28;0.85;;;0.60;;
12756;SDS011;31601;48.042;12.240;2022-08-03T12:23:00;3.22;;;0.80;;
12756;SDS011;31601;48.042;12.240;2022-08-03T12:25:28;1.77;;;0.50;;
12756;SDS011;31601;48.042;12.240;2022-08-03T12:28:05;1.23;;;0.60;;
12756;SDS011;31601;48.042;12.240;2022-08-03T12:30:34;2.53;;;0.60;;
12756;SDS011;31601;48.042;12.240;2022-08-03T12:33:11;1.30;;;0.70;;
12756;SDS011;31601;48.042;12.240;2022-08-03T12:35:41;3.15;;;0.70;;
12756;SDS011;31601;48.042;12.240;2022-08-03T12:38:09;0.95;;;0.63;;
12756;SDS011;31601;48.042;12.240;2022-08-03T12:40:36;0.70;;;0.70;;
12756;SDS011;31601;48.042;12.240;2022-08-03T12:43:09;2.38;;;0.70;;
12756;SDS011;31601;48.042;12.240;2022-08-03T12:45:36;2.08;;;0.80;;
12756;SDS011;31601;48.042;12.240;2022-08-03T12:48:07;0.82;;;0.65;;
12756;SDS011;31601;48.042;12.240;2022-08-03T12:50:37;1.92;;;0.77;;
12756;SDS011;31601;48.042;12.240;2022-08-03T12:53:06;1.35;;;0.75;;
12756;SDS011;31601;48.042;12.240;2022-08-03T12:55:33;2.33;;;0.80;;
12756;SDS011;31601;48.042;12.240;2022-08-03T12:58:01;0.63;;;0.60;;
12756;SDS011;31601;48.042;12.240;2022-08-03T13:00:28;1.73;;;0.60;;
12756;SDS011;31601;48.042;12.240;2022-08-03T13:02:58;1.67;;;0.75;;
12756;SDS011;31601;48.042;12.240;2022-08-03T13:05:26;1.60;;;0.65;;
12756;SDS011;31601;48.042;12.240;2022-08-03T13:07:55;0.68;;;0.60;;
12756;SDS011;31601;48.042;12.240;2022-08-03T13:10:32;1.25;;;0.73;;
12756;SDS011;31601;48.042;12.240;2022-08-03T13:12:59;2.15;;;0.70;;
12756;SDS011;31601;48.042;12.240;2022-08-03T13:15:27;1.33;;;0.70;;
12756;SDS011;31601;48.042;12.240;2022-08-03T13:17:55;0.98;;;0.70;;
12756;SDS011;31601;48.042;12.240;2022-08-03T13:20:22;4.30;;;0.80;;
12756;SDS011;31601;48.042;12.240;2022-08-03T13:22:49;1.73;;;0.82;;
12756;SDS011;31601;48.042;12.240;2022-08-03T13:25:17;1.05;;;0.60;;
12756;SDS011;31601;48.042;12.240;2022-08-03T13:27:44;3.72;;;0.70;;
12756;SDS011;31601;48.042;12.240;2022-08-03T13:30:11;2.25;;;0.60;;
12756;SDS011;31601;48.042;12.240;2022-08-03T13:32:38;1.92;;;0.73;;
12756;SDS011;31601;48.042;12.240;2022-08-03T13:35:05;1.30;;;0.77;;
12756;SDS011;31601;48.042;12.240;2022-08-03T13:37:33;1.90;;;0.70;;
12756;SDS011;31601;48.042;12.240;2022-08-03T13:40:00;6.28;;;0.70;;
12756;SDS011;31601;48.042;12.240;2022-08-03T13:42:29;1.45;;;0.80;;
12756;SDS011;31601;48.042;12.240;2022-08-03T13:44:57;0.80;;;0.60;;
12756;SDS011;31601;48.042;12.240;2022-08-03T13:47:24;3.05;;;0.80;;
12756;SDS011;31601;48.042;12.240;2022-08-03T13:49:50;2.38;;;0.70;;
12756;SDS011;31601;48.042;12.240;2022-08-03T13:52:17;3.42;;;1.13;;
12756;SDS011;31601;48.042;12.240;2022-08-03T13:54:44;2.00;;;0.77;;
12756;SDS011;31601;48.042;12.240;2022-08-03T13:57:10;1.33;;;0.70;;
12756;SDS011;31601;48.042;12.240;2022-08-03T13:59:38;0.75;;;0.52;;
12756;SDS011;31601;48.042;12.240;2022-08-03T14:02:04;2.08;;;0.90;;
12756;SDS011;31601;48.042;12.240;2022-08-03T14:04:31;1.73;;;0.70;;
12756;SDS011;31601;48.042;12.240;2022-08-03T14:06:57;0.93;;;0.60;;
12756;SDS011;31601;48.042;12.240;2022-08-03T14:09:24;2.05;;;1.10;;
12756;SDS011;31601;48.042;12.240;2022-08-03T14:11:50;0.60;;;0.60;;
12756;SDS011;31601;48.042;12.240;2022-08-03T14:14:17;0.80;;;0.60;;
12756;SDS011;31601;48.042;12.240;2022-08-03T14:16:44;0.68;;;0.60;;
12756;SDS011;31601;48.042;12.240;2022-08-03T14:19:11;2.38;;;0.60;;
12756;SDS011;31601;48.042;12.240;2022-08-03T14:21:39;1.38;;;0.60;;
12756;SDS011;31601;48.042;12.240;2022-08-03T14:24:06;1.52;;;0.73;;
12756;SDS011;31601;48.042;12.240;2022-08-03T14:26:33;1.17;;;0.70;;
12756;SDS011;31601;48.042;12.240;2022-08-03T14:28:59;2.00;;;0.70;;
12756;SDS011;31601;48.042;12.240;2022-08-03T14:31:26;0.90;;;0.77;;
12756;SDS011;31601;48.042;12.240;2022-08-03T14:33:54;0.80;;;0.65;;
12756;SDS011;31601;48.042;12.240;2022-08-03T14:36:20;4.72;;;0.73;;
12756;SDS011;31601;48.042;12.240;2022-08-03T14:38:47;3.17;;;0.77;;
12756;SDS011;31601;48.042;12.240;2022-08-03T14:41:13;1.30;;;0.65;;
12756;SDS011;31601;48.042;12.240;2022-08-03T14:43:39;3.50;;;0.68;;
12756;SDS011;31601;48.042;12.240;2022-08-03T14:46:06;1.00;;;0.80;;
12756;SDS011;31601;48.042;12.240;2022-08-03T14:48:32;0.88;;;0.70;;
12756;SDS011;31601;48.042;12.240;2022-08-03T14:51:00;2.22;;;0.65;;
12756;SDS011;31601;48.042;12.240;2022-08-03T14:53:26;0.70;;;0.60;;
12756;SDS011;31601;48.042;12.240;2022-08-03T14:55:54;1.20;;;0.57;;
12756;SDS011;31601;48.042;12.240;2022-08-03T14:58:21;1.08;;;0.73;;